METAR Data
IDs: Format: Raw Decoded Include TAF

Data at: 2105 UTC 19 May 2019

PAPB 192053Z AUTO 01010KT 10SM OVC022 03/M01 A2977 RMK AO2 SLP069 T00281011 58003 TSNO $
PAPB 191953Z AUTO 36012KT 10SM SCT018 BKN024 OVC033 03/M01 A2978 RMK AO2 SLP071 T00281011 TSNO $
PAPB 191946Z AUTO 36009KT 10SM SCT016 BKN023 OVC033 02/M01 A2978 RMK AO2 T00221011 TSNO $
PAPB 191853Z AUTO 01014KT 10SM BKN011 BKN020 OVC032 02/00 A2978 RMK AO2 SLP073 T00220000 TSNO $
PAPB 191850Z AUTO 36012KT 10SM BKN011 OVC032 02/00 A2978 RMK AO2 TSNO $
PAPB 191830Z AUTO 36012KT 10SM BKN009 BKN016 OVC032 02/01 A2978 RMK AO2 CIG 007V011 T00220006 TSNO $
PAPB 191753Z AUTO 02009KT 6SM BR OVC012 02/00 A2978 RMK AO2 SLP074 T00170000 10022 20017 53001 TSNO $
PAPB 191709Z AUTO 34010KT 8SM OVC012 02/M01 A2979 RMK AO2 T00171006 TSNO $
PAPB 191653Z AUTO 34009KT 10SM OVC015 02/M01 A2978 RMK AO2 SLP074 T00171006 TSNO $
PAPB 191636Z AUTO 34011KT 10SM OVC015 02/M01 A2978 RMK AO2 T00221011 TSNO $
PAPB 191553Z AUTO 35009KT 10SM OVC013 02/M01 A2978 RMK AO2 SLP072 T00171006 TSNO $
PAPB 191510Z AUTO 35007KT 10SM OVC014 02/M01 A2978 RMK AO2 T00171006 TSNO $
PAPB 191453Z AUTO 34011KT 10SM OVC016 02/M01 A2978 RMK AO2 SLP073 T00171011 57002 TSNO $
PAPB 191353Z AUTO 36012KT 10SM OVC016 02/M01 A2978 RMK AO2 SLP074 T00171011 TSNO $
PAPB 191350Z AUTO 35011KT 10SM BKN016 OVC020 02/M01 A2979 RMK AO2 TSNO $
PAPB 191253Z AUTO 34011KT 10SM OVC011 02/M01 A2979 RMK AO2 SLP075 T00171006 TSNO $
PAPB 191153Z AUTO 35010G15KT 10SM OVC012 02/M01 A2980 RMK AO2 SLP078 70002 T00171006 10022 20017 58003 TSNO $
PAPB 191053Z AUTO 01007KT 10SM OVC013 02/00 A2980 RMK AO2 SLP079 T00170000 TSNO $
PAPB 191040Z AUTO 01008KT 10SM OVC014 02/00 A2980 RMK AO2 T00220000 TSNO $
PAPB 191008Z AUTO 35008KT 10SM SCT014 OVC020 02/M01 A2980 RMK AO2 T00221006 TSNO $
PAPB 190953Z AUTO 35007KT 10SM OVC014 02/M01 A2980 RMK AO2 SLP079 T00171006 TSNO $
PAPB 190853Z AUTO 01007KT 10SM OVC013 02/00 A2980 RMK AO2 SLP080 T00220000 400390017 51010 TSNO $
PAPB 190753Z AUTO 36008G16KT 10SM OVC013 02/00 A2980 RMK AO2 SLP079 T00220000 TSNO $
PAPB 190653Z AUTO 01011KT 10SM OVC013 02/00 A2978 RMK AO2 SLP073 T00220000 TSNO $
PAPB 190553Z AUTO 01011G19KT 10SM OVC013 02/00 A2977 RMK AO2 SLP070 T00220000 10039 20022 53002 TSNO $
PAPB 190534Z AUTO 01012G19KT 10SM OVC013 02/00 A2977 RMK AO2 T00220000 TSNO $
PAPB 190502Z AUTO 01011KT 10SM OVC016 02/M01 A2977 RMK AO2 T00221006 TSNO $
PAPB 190453Z AUTO 01013G20KT 10SM OVC014 03/00 A2977 RMK AO2 SLP069 T00280000 TSNO $
PAPB 190353Z AUTO 36014G20KT 10SM OVC012 03/00 A2976 RMK AO2 SLP065 T00280000 TSNO $
PAPB 190253Z AUTO 35008G19KT 10SM OVC012 03/01 A2977 RMK AO2 SLP068 T00330006 55000 TSNO $
PAPB 190207Z AUTO 35008KT 10SM OVC013 03/01 A2977 RMK AO2 T00280006 TSNO $
PAPB 190153Z AUTO 34009KT 10SM OVC015 03/01 A2977 RMK AO2 SLP068 T00330006 TSNO $
PAPB 190139Z AUTO 02009KT 10SM OVC015 03/01 A2977 RMK AO2 T00330006 TSNO $
PAPB 190100Z AUTO VRB06G14KT 10SM OVC011 03/01 A2977 RMK AO2 T00330011 TSNO $
PAPB 190053Z AUTO VRB05G14KT 10SM OVC009 03/01 A2977 RMK AO2 CIG 008V013 SLP068 T00280011 TSNO $
PAPB 190031Z AUTO 33006KT 9SM OVC009 03/01 A2977 RMK AO2 CIG 008V013 T00280011 TSNO $
PAPB 182353Z AUTO 33011KT 10SM OVC012 03/01 A2977 RMK AO2 SLP068 T00330011 10033 20022 55000 TSNO $
PAPB 182253Z AUTO 35009KT 10SM BKN010 OVC016 03/01 A2976 RMK AO2 CIG 008V012 SLP067 T00280011 TSNO $
PAPB 182153Z AUTO 36010KT 10SM BKN012 OVC022 03/01 A2976 RMK AO2 SLP066 T00330011 TSNO $
PAPB 182053Z AUTO 34011KT 10SM OVC013 03/01 A2977 RMK AO2 SLP068 T00280011 52008 TSNO $
PAPB 182019Z AUTO 34010KT 10SM BKN012 OVC020 03/01 A2976 RMK AO2 T00280006 TSNO $
PAPB 182012Z AUTO 33009KT 10SM SCT009 OVC016 02/01 A2976 RMK AO2 T00220006 TSNO $
PAPB 182005Z AUTO 34010KT 10SM OVC012 02/01 A2976 RMK AO2 T00220006 TSNO $
PAPB 181953Z AUTO 34011KT 10SM OVC008 03/01 A2976 RMK AO2 SLP065 T00280011 TSNO $
PAPB 181924Z AUTO 33010KT 10SM BKN009 OVC013 02/01 A2976 RMK AO2 CIG 007V012 T00220006 TSNO $
PAPB 181853Z AUTO 32012KT 10SM OVC011 02/01 A2975 RMK AO2 SLP064 T00220006 TSNO $
PAPB 181837Z AUTO 33011KT 10SM BKN013 BKN026 OVC036 02/01 A2975 RMK AO2 T00220006 TSNO $
PAPB 181828Z AUTO 33011KT 10SM SCT013 BKN026 OVC036 02/01 A2975 RMK AO2 T00220006 TSNO $
PAPB 181814Z AUTO 33012KT 10SM SCT013 OVC034 02/01 A2975 RMK AO2 T00220006 TSNO $
PAPB 181753Z AUTO 33011KT 10SM SCT014 BKN018 OVC029 02/01 A2975 RMK AO2 SLP061 60002 T00220006 10022 20017 55002 TSNO $
PAPB 181653Z AUTO 33014KT 9SM OVC010 02/01 A2974 RMK AO2 CIG 008V014 SLP059 T00220006 TSNO $
PAPB 181621Z AUTO 32010KT 9SM OVC014 02/01 A2974 RMK AO2 T00220006 TSNO $
PAPB 181609Z AUTO 32014KT 10SM FEW008 OVC016 02/01 A2974 RMK AO2 T00220011 TSNO $
PAPB 181553Z AUTO 32015KT 8SM BKN010 OVC014 02/01 A2974 RMK AO2 CIG 008V012 SLP059 T00220011 TSNO $
PAPB 181453Z AUTO 30009KT 10SM OVC010 02/01 A2975 RMK AO2 UPB00E34 CIG 007V013 SLP063 P0000 60002 T00170006 58004 TSNO $
PAPB 181353Z AUTO 31012KT 10SM BKN012 OVC049 02/01 A2976 RMK AO2 UPE1258B16E22B40E48 SLP064 P0001 T00170006 TSNO $
PAPB 181253Z AUTO 31012KT 10SM UP BKN011 BKN017 OVC036 02/01 A2976 RMK AO2 UPB20 SLP066 P0001 T00170006 TSNO $
PAPB 181237Z AUTO 32013KT 10SM UP BKN011 BKN017 OVC023 02/01 A2976 RMK AO2 UPB20 P0001 T00170006 TSNO $
PAPB 181229Z AUTO 31012KT 9SM UP SCT011 BKN015 OVC023 02/00 A2976 RMK AO2 UPB20 P0001 T00170000 TSNO $
PAPB 181212Z AUTO 31012KT 10SM BKN014 BKN026 OVC050 02/00 A2976 RMK AO2 T00170000 TSNO $
PAPB 181153Z AUTO 31010KT 10SM SCT014 BKN018 OVC050 02/00 A2976 RMK AO2 SLP067 70002 T00170000 10028 20017 55000 TSNO $
PAPB 181150Z AUTO 31011KT 10SM BKN014 BKN023 OVC050 02/00 A2976 RMK AO2 TSNO $
PAPB 181140Z AUTO 32012KT 10SM SCT014 BKN020 OVC055 02/00 A2976 RMK AO2 T00170000 TSNO $
PAPB 181130Z AUTO 32013KT 10SM BKN014 BKN020 OVC039 02/00 A2976 RMK AO2 T00170000 TSNO $
PAPB 181117Z AUTO 32012KT 10SM SCT012 BKN020 OVC035 02/00 A2976 RMK AO2 T00220000 TSNO $
PAPB 181053Z AUTO 32013KT 10SM BKN014 OVC021 02/00 A2976 RMK AO2 SLP066 T00220000 TSNO $
PAPB 180953Z AUTO 31010KT 10SM OVC016 03/M01 A2977 RMK AO2 SLP068 T00281006 TSNO $